Time;durP1;ratioP1;P1;durP2;ratioP2;P2;SDS_P1;SDS_P2;PMS_P1;PMS_P2;Temp;Humidity;BMP_temperature;BMP_pressure;BME280_temperature;BME280_humidity;BME280_pressure;Samples;Min_cycle;Max_cycle;Signal;HPM_P1;HPM_P2
2023/07/22 00:01:10;;;;;;;27.23;6.20;;;30.90;52.20;;;;;;5132847;27;19920;-73
2023/07/22 00:03:36;;;;;;;22.27;5.35;;;31.00;52.30;;;;;;5135006;27;20025;-73
2023/07/22 00:06:10;;;;;;;26.92;5.60;;;31.00;52.10;;;;;;5137415;27;20106;-73
2023/07/22 00:08:37;;;;;;;26.08;6.05;;;31.00;52.20;;;;;;5136624;27;20058;-73
2023/07/22 00:11:04;;;;;;;21.50;5.90;;;31.10;53.00;;;;;;5136713;27;20023;-71
2023/07/22 00:13:32;;;;;;;26.95;6.05;;;31.10;53.40;;;;;;5136724;27;20022;-71
2023/07/22 00:15:59;;;;;;;24.52;5.63;;;31.10;54.10;;;;;;5136608;27;20027;-72
2023/07/22 00:18:28;;;;;;;30.67;6.00;;;31.10;53.70;;;;;;5137200;27;20019;-72
2023/07/22 00:20:54;;;;;;;24.55;6.20;;;31.00;50.60;;;;;;5135080;27;20024;-72
2023/07/22 00:23:21;;;;;;;21.52;5.72;;;31.00;51.50;;;;;;5136615;27;20470;-72
2023/07/22 00:25:47;;;;;;;;;;;30.90;51.40;;;;;;5137190;27;20058;-71
2023/07/22 00:28:13;;;;;;;27.25;5.00;;;30.90;51.00;;;;;;5136463;27;19907;-72
2023/07/22 00:30:40;;;;;;;25.95;4.63;;;30.90;48.50;;;;;;5136564;27;20023;-72
2023/07/22 00:33:06;;;;;;;;;;;31.00;47.70;;;;;;5136539;27;20522;-72
2023/07/22 00:35:32;;;;;;;25.13;5.30;;;31.10;47.90;;;;;;5134913;27;19990;-72
2023/07/22 00:38:02;;;;;;;29.05;5.30;;;31.10;47.70;;;;;;5136411;27;20466;-72
2023/07/22 00:40:31;;;;;;;38.22;5.68;;;31.20;47.00;;;;;;5136147;27;20023;-72
2023/07/22 00:42:59;;;;;;;23.65;5.43;;;31.20;46.70;;;;;;5136672;27;20054;-72
2023/07/22 00:45:25;;;;;;;24.00;5.70;;;31.20;47.30;;;;;;5136569;27;20075;-72
2023/07/22 00:47:51;;;;;;;23.17;5.45;;;31.10;48.70;;;;;;5136091;27;20046;-72
2023/07/22 00:50:18;;;;;;;25.25;5.47;;;31.10;48.80;;;;;;5136264;27;20023;-72
2023/07/22 00:52:44;;;;;;;24.17;5.63;;;31.10;49.00;;;;;;5135773;27;20042;-72
2023/07/22 00:55:10;;;;;;;27.98;5.68;;;31.10;49.30;;;;;;5136016;27;20031;-72
2023/07/22 00:57:37;;;;;;;;;;;31.10;49.10;;;;;;5136931;27;20508;-72
2023/07/22 01:00:05;;;;;;;24.58;5.70;;;31.10;48.60;;;;;;5135795;27;19904;-72
2023/07/22 01:02:31;;;;;;;24.02;5.85;;;31.20;48.80;;;;;;5134357;27;20478;-72
2023/07/22 01:04:57;;;;;;;;;;;31.20;48.60;;;;;;5136199;27;20109;-72
2023/07/22 01:07:24;;;;;;;32.35;6.47;;;31.10;48.80;;;;;;5135889;27;19950;-72
2023/07/22 01:09:56;;;;;;;31.73;6.13;;;30.90;48.60;;;;;;5135550;27;20023;-71
2023/07/22 01:12:22;;;;;;;28.25;5.85;;;30.90;48.30;;;;;;5136011;27;20016;-72
2023/07/22 01:14:49;;;;;;;26.50;5.70;;;31.00;48.10;;;;;;5135409;27;20027;-71
2023/07/22 01:17:16;;;;;;;23.55;5.28;;;31.00;48.30;;;;;;5135460;27;20030;-71
2023/07/22 01:19:43;;;;;;;;;;;31.00;48.10;;;;;;5135724;27;20035;-71
2023/07/22 01:22:10;;;;;;;22.65;6.50;;;31.00;48.00;;;;;;5135319;27;19961;-71
2023/07/22 01:24:38;;;;;;;23.45;5.57;;;31.00;47.90;;;;;;5135210;27;20098;-71
2023/07/22 01:27:10;;;;;;;26.55;5.80;;;31.00;48.10;;;;;;5135541;27;20109;-71
2023/07/22 01:29:36;;;;;;;25.42;5.85;;;31.10;48.20;;;;;;5135476;27;20011;-71
2023/07/22 01:32:03;;;;;;;25.63;5.88;;;31.10;48.20;;;;;;5134979;27;20518;-71
2023/07/22 01:34:31;;;;;;;31.17;6.60;;;31.20;47.90;;;;;;5135117;27;20015;-71
2023/07/22 01:36:57;;;;;;;27.80;6.38;;;31.30;48.00;;;;;;5135166;27;20103;-71
2023/07/22 01:39:23;;;;;;;;;;;31.30;47.90;;;;;;5135288;27;20360;-71
2023/07/22 01:41:49;;;;;;;30.98;6.20;;;31.30;48.00;;;;;;5135349;27;20377;-71
2023/07/22 01:44:15;;;;;;;;;;;31.30;48.00;;;;;;5135638;27;20101;-71
2023/07/22 01:46:41;;;;;;;33.05;7.68;;;31.30;48.30;;;;;;5134893;27;19991;-71
2023/07/22 01:49:12;;;;;;;29.00;7.15;;;31.30;48.40;;;;;;5133439;27;20379;-71
2023/07/22 01:51:40;;;;;;;26.88;6.68;;;31.40;48.50;;;;;;5135060;27;20110;-71
2023/07/22 01:54:07;;;;;;;29.27;6.63;;;31.30;48.70;;;;;;5134579;27;20027;-71
2023/07/22 01:56:33;;;;;;;28.40;6.40;;;31.40;49.60;;;;;;5133327;27;20114;-71
2023/07/22 01:58:59;;;;;;;30.17;6.63;;;31.50;49.60;;;;;;5134953;27;20031;-71
2023/07/22 02:01:25;;;;;;;29.27;6.18;;;31.50;49.50;;;;;;5134430;27;20062;-71
2023/07/22 02:03:52;;;;;;;31.38;6.03;;;31.40;49.60;;;;;;5134865;27;20069;-72
2023/07/22 02:06:18;;;;;;;30.75;6.50;;;31.40;49.70;;;;;;5134503;27;20015;-71
2023/07/22 02:08:43;;;;;;;;;;;31.50;49.90;;;;;;5134535;27;20406;-71
2023/07/22 02:11:10;;;;;;;30.35;5.90;;;31.50;49.90;;;;;;5134614;27;19903;-71
2023/07/22 02:13:36;;;;;;;31.80;6.78;;;31.50;49.30;;;;;;5134347;27;20068;-71
2023/07/22 02:16:03;;;;;;;26.02;7.43;;;31.40;48.70;;;;;;5134527;27;20379;-71
2023/07/22 02:18:30;;;;;;;31.67;7.35;;;31.40;47.80;;;;;;5134729;27;20105;-71
2023/07/22 02:20:57;;;;;;;32.25;7.78;;;31.30;48.00;;;;;;5134218;27;20030;-71
2023/07/22 02:23:24;;;;;;;25.38;6.72;;;31.30;48.00;;;;;;5133998;27;20516;-72
2023/07/22 02:25:51;;;;;;;27.65;6.63;;;31.30;48.40;;;;;;5132084;27;20023;-72
2023/07/22 02:28:21;;;;;;;30.23;6.97;;;31.40;48.50;;;;;;5134241;27;20115;-72
2023/07/22 02:30:49;;;;;;;29.15;6.13;;;31.40;48.20;;;;;;5134784;27;20493;-72
2023/07/22 02:33:15;;;;;;;24.08;5.82;;;31.50;48.10;;;;;;5134158;27;20042;-72
2023/07/22 02:35:42;;;;;;;26.13;5.75;;;31.60;47.90;;;;;;5134149;27;20031;-72
2023/07/22 02:38:08;;;;;;;25.63;6.07;;;31.70;47.70;;;;;;5134168;27;20028;-72
2023/07/22 02:40:37;;;;;;;29.88;6.00;;;31.80;47.80;;;;;;5134060;27;20149;-72
2023/07/22 02:43:05;;;;;;;19.88;5.05;;;31.80;48.30;;;;;;5134023;27;20027;-72
2023/07/22 02:45:31;;;;;;;23.65;5.43;;;31.90;48.40;;;;;;5132425;27;20024;-72
2023/07/22 02:47:57;;;;;;;21.77;5.03;;;31.90;47.60;;;;;;5134179;27;20019;-72
2023/07/22 02:50:23;;;;;;;27.17;5.72;;;32.00;47.80;;;;;;5133880;27;20026;-72
2023/07/22 02:52:50;;;;;;;20.25;5.35;;;31.90;47.70;;;;;;5133457;27;20132;-71
2023/07/22 02:55:20;;;;;;;18.85;5.78;;;31.90;47.30;;;;;;5134073;27;20145;-71
2023/07/22 02:57:47;;;;;;;25.02;5.72;;;31.90;47.20;;;;;;5132322;27;20023;-71
2023/07/22 03:00:24;;;;;;;28.67;6.10;;;31.80;47.30;;;;;;5133505;27;20019;-72
2023/07/22 03:03:00;;;;;;;27.45;6.20;;;31.80;47.00;;;;;;5133780;27;20039;-69
2023/07/22 03:05:28;;;;;;;29.77;5.82;;;31.80;46.90;;;;;;5133733;27;20012;-72
2023/07/22 03:07:54;;;;;;;27.98;6.07;;;31.70;46.70;;;;;;5133292;27;20027;-72
2023/07/22 03:10:20;;;;;;;25.30;5.80;;;31.70;46.50;;;;;;5133939;27;20532;-72
2023/07/22 03:12:47;;;;;;;;;;;31.60;46.40;;;;;;5134337;27;20024;-72
2023/07/22 03:15:13;;;;;;;22.38;6.10;;;31.60;45.60;;;;;;5133453;27;20001;-72
2023/07/22 03:17:42;;;;;;;;;;;31.60;45.70;;;;;;5134053;27;20091;-72
2023/07/22 03:20:13;;;;;;;26.55;8.57;;;31.60;46.20;;;;;;5131933;27;19980;-72
2023/07/22 03:22:43;;;;;;;23.83;7.28;;;31.50;45.40;;;;;;5133612;27;20031;-71
2023/07/22 03:25:10;;;;;;;24.10;6.53;;;31.50;45.00;;;;;;5133114;27;20019;-72
2023/07/22 03:27:37;;;;;;;26.02;6.50;;;31.50;44.70;;;;;;5133311;27;20027;-72
2023/07/22 03:30:07;;;;;;;28.90;7.53;;;31.60;44.20;;;;;;5131848;28;20034;-72
2023/07/22 03:32:34;;;;;;;25.20;6.90;;;31.60;44.80;;;;;;5133026;27;20040;-72
2023/07/22 03:35:01;;;;;;;25.70;6.05;;;31.60;44.90;;;;;;5133530;27;20032;-72
2023/07/22 03:37:28;;;;;;;21.95;5.78;;;31.50;44.30;;;;;;5134638;27;20019;-71
2023/07/22 03:39:54;;;;;;;30.75;6.18;;;31.60;44.40;;;;;;5137189;27;20068;-72
2023/07/22 03:42:20;;;;;;;;;;;31.60;44.50;;;;;;5138105;27;20027;-72
2023/07/22 03:44:46;;;;;;;28.55;6.22;;;31.70;44.60;;;;;;5137367;27;19915;-71
2023/07/22 03:47:12;;;;;;;29.52;6.57;;;31.70;44.30;;;;;;5137748;27;20348;-73
2023/07/22 03:49:39;;;;;;;23.27;6.03;;;31.70;44.90;;;;;;5137508;27;20045;-72
2023/07/22 03:52:05;;;;;;;24.88;5.13;;;31.60;44.30;;;;;;5137231;27;20027;-72
2023/07/22 03:54:31;;;;;;;28.27;5.90;;;31.70;43.80;;;;;;5136969;27;20097;-72
2023/07/22 03:56:57;;;;;;;32.08;6.60;;;31.60;44.00;;;;;;5135812;27;20125;-72
2023/07/22 03:59:24;;;;;;;26.23;5.97;;;31.70;43.90;;;;;;5137437;27;20019;-72
2023/07/22 04:01:50;;;;;;;28.35;5.22;;;31.80;44.00;;;;;;5137361;27;20562;-72
2023/07/22 04:04:16;;;;;;;25.73;5.38;;;31.80;43.90;;;;;;5137031;27;20023;-71
2023/07/22 04:06:42;;;;;;;25.08;5.70;;;31.80;43.90;;;;;;5137404;27;20035;-71
2023/07/22 04:09:08;;;;;;;30.63;5.45;;;32.00;44.70;;;;;;5136956;27;20015;-71
2023/07/22 04:11:34;;;;;;;;;;;31.90;44.10;;;;;;5137512;27;20031;-73
2023/07/22 04:14:00;;;;;;;29.05;6.10;;;31.90;43.30;;;;;;5136777;27;19933;-72
2023/07/22 04:16:26;;;;;;;26.42;6.60;;;32.00;42.40;;;;;;5136732;27;20015;-71
2023/07/22 04:18:52;;;;;;;;;;;32.10;42.20;;;;;;5137333;27;20049;-72
2023/07/22 04:21:18;;;;;;;29.63;6.22;;;32.20;42.00;;;;;;5136489;27;20425;-72
2023/07/22 04:23:44;;;;;;;27.63;5.43;;;32.20;41.10;;;;;;5136610;27;20372;-72
2023/07/22 04:26:11;;;;;;;24.80;5.95;;;32.30;41.00;;;;;;5135227;27;20471;-72
2023/07/22 04:28:37;;;;;;;25.45;6.45;;;32.40;40.10;;;;;;5136851;27;20103;-72
2023/07/22 04:31:04;;;;;;;;;;;32.40;40.00;;;;;;5136660;27;20028;-72
2023/07/22 04:33:30;;;;;;;25.95;5.97;;;32.50;39.90;;;;;;5136980;27;19953;-72
2023/07/22 04:35:59;;;;;;;27.65;5.78;;;32.50;40.10;;;;;;5136007;27;20110;-72
2023/07/22 04:38:26;;;;;;;36.17;6.47;;;32.60;40.20;;;;;;5136149;27;20027;-72
2023/07/22 04:40:52;;;;;;;24.75;6.05;;;32.60;41.10;;;;;;5134771;27;20023;-72
2023/07/22 04:43:18;;;;;;;;;;;32.70;40.90;;;;;;5136854;27;20498;-72
2023/07/22 04:45:50;;;;;;;24.05;5.43;;;32.70;40.70;;;;;;5134864;27;19907;-72
2023/07/22 04:48:19;;;;;;;30.38;5.95;;;32.80;40.10;;;;;;5134426;27;20126;-72
2023/07/22 04:50:45;;;;;;;30.73;5.80;;;32.80;39.70;;;;;;5135855;27;20107;-71
2023/07/22 04:53:15;;;;;;;;;;;32.90;39.70;;;;;;5136301;27;20478;-72
2023/07/22 04:55:44;;;;;;;22.98;5.20;;;32.90;39.50;;;;;;5136279;27;20274;-72
2023/07/22 04:58:10;;;;;;;27.73;6.05;;;33.00;38.60;;;;;;5136237;27;20094;-73
2023/07/22 05:00:39;;;;;;;;;;;33.10;38.80;;;;;;5136466;27;20027;-73
2023/07/22 05:03:05;;;;;;;25.63;5.80;;;33.20;38.50;;;;;;5135883;27;19911;-72
2023/07/22 05:05:32;;;;;;;36.65;6.45;;;33.20;38.90;;;;;;5135745;27;20069;-72
2023/07/22 05:07:58;;;;;;;30.98;5.53;;;33.30;38.70;;;;;;5135492;27;20106;-73
2023/07/22 05:10:24;;;;;;;;;;;33.40;38.80;;;;;;5136625;27;20035;-72
2023/07/22 05:12:50;;;;;;;24.90;6.03;;;33.50;39.20;;;;;;5135804;27;19910;-72
2023/07/22 05:15:17;;;;;;;30.58;5.88;;;33.80;39.40;;;;;;5135933;27;20030;-72
2023/07/22 05:17:43;;;;;;;21.92;5.07;;;34.40;39.40;;;;;;5135508;27;20023;-73
2023/07/22 05:20:10;;;;;;;30.90;6.15;;;35.00;39.40;;;;;;5135494;27;20050;-72
2023/07/22 05:22:37;;;;;;;20.80;5.22;;;35.50;39.30;;;;;;5135283;27;20035;-72
2023/07/22 05:25:04;;;;;;;27.20;6.03;;;36.40;38.60;;;;;;5133939;27;20047;-72
2023/07/22 05:27:31;;;;;;;28.25;6.25;;;37.00;37.90;;;;;;5135516;27;20029;-73
2023/07/22 05:29:57;;;;;;;27.55;6.68;;;37.70;37.90;;;;;;5135740;27;20094;-73
2023/07/22 05:32:23;;;;;;;23.17;6.10;;;38.10;36.80;;;;;;5135130;27;20067;-73
2023/07/22 05:34:49;;;;;;;27.25;5.88;;;38.70;36.90;;;;;;5135309;27;20102;-73
2023/07/22 05:37:15;;;;;;;22.27;5.40;;;39.00;36.70;;;;;;5135379;27;20019;-73
2023/07/22 05:39:41;;;;;;;33.25;6.50;;;39.20;36.50;;;;;;5135032;27;20471;-71
2023/07/22 05:42:08;;;;;;;19.73;5.63;;;39.50;36.40;;;;;;5134959;27;20038;-73
2023/07/22 05:44:34;;;;;;;31.02;6.40;;;39.90;35.80;;;;;;5133771;27;20024;-73
2023/07/22 05:47:01;;;;;;;34.05;6.00;;;40.00;35.30;;;;;;5134988;27;20023;-73
2023/07/22 05:49:27;;;;;;;32.65;5.90;;;40.00;35.30;;;;;;5134951;27;20065;-72
2023/07/22 05:51:54;;;;;;;21.98;5.63;;;39.80;35.40;;;;;;5135235;27;20019;-72
2023/07/22 05:54:21;;;;;;;28.73;5.75;;;40.70;35.30;;;;;;5134787;27;20046;-72
2023/07/22 05:56:47;;;;;;;28.85;5.90;;;41.80;34.80;;;;;;5133467;27;20095;-73
2023/07/22 05:59:13;;;;;;;25.73;5.82;;;42.70;34.20;;;;;;5134816;27;20450;-70
2023/07/22 06:01:40;;;;;;;22.25;5.60;;;42.80;34.20;;;;;;5133497;27;20035;-72
2023/07/22 06:04:06;;;;;;;42.80;6.90;;;43.80;34.40;;;;;;5135154;27;20383;-71
2023/07/22 06:06:32;;;;;;;25.70;6.00;;;44.20;34.40;;;;;;5135209;27;20529;-71
2023/07/22 06:08:59;;;;;;;28.63;6.60;;;45.00;34.50;;;;;;5134411;27;20059;-71
2023/07/22 06:11:25;;;;;;;33.15;6.15;;;46.10;33.90;;;;;;5134565;27;20023;-71
2023/07/22 06:13:51;;;;;;;31.42;5.97;;;46.50;32.90;;;;;;5133088;27;20147;-71
2023/07/22 06:16:17;;;;;;;35.67;6.18;;;46.40;32.90;;;;;;5134321;27;20023;-72
2023/07/22 06:18:43;;;;;;;32.17;6.18;;;46.40;32.80;;;;;;5133006;27;20033;-72
2023/07/22 06:21:10;;;;;;;31.60;6.05;;;46.80;32.90;;;;;;5134564;27;20063;-72
2023/07/22 06:23:36;;;;;;;28.88;6.00;;;46.80;32.90;;;;;;5133980;27;20034;-72
2023/07/22 06:26:03;;;;;;;32.85;5.55;;;46.50;32.20;;;;;;5132778;27;20027;-72
2023/07/22 06:28:29;;;;;;;28.10;5.57;;;46.60;32.40;;;;;;5134190;27;20019;-72
2023/07/22 06:30:55;;;;;;;47.47;6.18;;;46.20;32.70;;;;;;5133896;27;20015;-72
2023/07/22 06:33:21;;;;;;;22.83;5.30;;;46.50;31.80;;;;;;5134354;27;20035;-72
2023/07/22 06:35:47;;;;;;;25.67;5.70;;;46.50;31.20;;;;;;5133983;27;20390;-72
2023/07/22 06:38:13;;;;;;;23.15;5.63;;;46.70;32.20;;;;;;5133712;27;20404;-72
2023/07/22 06:40:40;;;;;;;30.40;5.63;;;47.30;32.20;;;;;;5133662;27;20467;-72
2023/07/22 06:43:06;;;;;;;27.05;5.90;;;48.70;31.10;;;;;;5132420;27;20039;-71
2023/07/22 06:45:33;;;;;;;29.30;5.68;;;48.90;31.30;;;;;;5134231;27;20015;-72
2023/07/22 06:47:59;;;;;;;28.48;5.22;;;49.00;31.00;;;;;;5132295;27;20371;-72
2023/07/22 06:50:25;;;;;;;198.40;14.88;;;49.20;30.40;;;;;;5132076;27;20016;-72
2023/07/22 06:52:51;;;;;;;34.78;6.00;;;48.10;29.00;;;;;;5133683;27;20019;-72
2023/07/22 06:55:18;;;;;;;25.63;5.38;;;47.30;29.90;;;;;;5133419;27;20450;-72
2023/07/22 06:57:45;;;;;;;28.00;5.68;;;47.00;30.90;;;;;;5134054;27;20128;-72
2023/07/22 07:00:11;;;;;;;29.52;6.03;;;46.30;30.60;;;;;;5133441;27;20053;-71
2023/07/22 07:02:37;;;;;;;30.23;5.65;;;46.40;30.50;;;;;;5133975;27;20118;-72
2023/07/22 07:05:04;;;;;;;27.40;5.65;;;45.60;31.00;;;;;;5132092;27;20023;-71
2023/07/22 07:07:30;;;;;;;32.10;5.65;;;46.20;31.30;;;;;;5132052;27;20110;-72
2023/07/22 07:09:56;;;;;;;34.22;5.85;;;46.40;31.00;;;;;;5133209;27;20428;-71
2023/07/22 07:12:22;;;;;;;24.60;5.38;;;47.10;31.00;;;;;;5133099;27;20066;-72
2023/07/22 07:14:51;;;;;;;28.30;5.97;;;47.10;31.80;;;;;;5132420;27;20035;-71
2023/07/22 07:17:18;;;;;;;25.38;5.30;;;47.40;31.90;;;;;;5130984;27;20121;-72
2023/07/22 07:19:44;;;;;;;29.58;6.25;;;47.10;31.90;;;;;;5132163;27;20027;-77
2023/07/22 07:22:11;;;;;;;21.33;5.20;;;47.30;32.60;;;;;;5134826;27;20042;-79
2023/07/22 07:24:37;;;;;;;25.35;5.07;;;47.20;35.10;;;;;;5134178;27;20024;-89
2023/07/22 07:27:03;;;;;;;115.80;11.50;;;46.80;32.20;;;;;;5133791;28;20497;-89
2023/07/22 07:29:29;;;;;;;34.78;5.88;;;46.60;32.90;;;;;;5132801;28;20019;-89
2023/07/22 07:31:55;;;;;;;28.67;5.40;;;45.10;35.20;;;;;;5134484;27;20079;-85
2023/07/22 07:34:23;;;;;;;41.83;6.60;;;43.70;35.20;;;;;;5135064;27;20070;-86
2023/07/22 07:36:50;;;;;;;40.30;6.28;;;44.10;39.30;;;;;;5133928;27;20031;-75
2023/07/22 07:39:17;;;;;;;27.50;5.75;;;44.10;36.10;;;;;;5134117;27;20030;-77
2023/07/22 07:41:43;;;;;;;44.83;7.50;;;44.20;39.80;;;;;;5134226;27;20038;-75
2023/07/22 07:44:09;;;;;;;76.70;8.38;;;42.90;39.60;;;;;;5134249;27;20019;-75
2023/07/22 07:46:36;;;;;;;36.40;7.18;;;42.70;40.30;;;;;;5115270;28;20031;-78
2023/07/22 07:49:02;;;;;;;36.90;7.93;;;42.10;40.30;;;;;;5134157;27;20370;-77
2023/07/22 07:51:30;;;;;;;34.13;6.97;;;41.40;41.70;;;;;;5129055;27;20155;-74
2023/07/22 07:53:58;;;;;;;26.88;7.05;;;41.90;42.30;;;;;;5111136;28;20050;-74
2023/07/22 07:56:25;;;;;;;30.17;6.85;;;42.10;42.70;;;;;;5111644;28;20427;-75
2023/07/22 07:58:53;;;;;;;32.60;7.10;;;42.10;42.60;;;;;;5110051;28;20024;-75
2023/07/22 08:01:20;;;;;;;38.15;7.05;;;42.40;41.90;;;;;;5112686;28;20435;-74
2023/07/22 08:03:47;;;;;;;31.83;7.15;;;42.70;40.30;;;;;;5112757;28;20028;-74
2023/07/22 08:06:13;;;;;;;29.02;7.07;;;42.50;42.10;;;;;;5112426;28;20024;-75
2023/07/22 08:08:40;;;;;;;38.22;7.07;;;41.90;42.70;;;;;;5111615;28;20110;-74
2023/07/22 08:11:14;;;;;;;79.93;8.60;;;41.70;43.20;;;;;;5112568;28;20073;-74
2023/07/22 08:13:42;;;;;;;34.47;7.82;;;41.70;43.20;;;;;;5112919;28;20452;-74
2023/07/22 08:16:10;;;;;;;57.30;8.52;;;41.50;43.20;;;;;;5112214;28;20170;-74
2023/07/22 08:18:36;;;;;;;47.60;8.90;;;41.70;43.80;;;;;;5112429;28;20027;-75
2023/07/22 08:21:06;;;;;;;76.47;9.57;;;41.20;43.60;;;;;;5112492;28;20447;-73
2023/07/22 08:23:32;;;;;;;73.50;10.48;;;41.50;44.20;;;;;;5110921;28;20024;-74
2023/07/22 08:25:58;;;;;;;60.42;9.52;;;41.40;44.20;;;;;;5116493;28;20025;-75
2023/07/22 08:28:24;;;;;;;40.17;7.57;;;41.40;44.30;;;;;;5116254;28;20031;-74
2023/07/22 08:30:53;;;;;;;33.10;7.03;;;41.20;44.10;;;;;;5116016;28;20035;-73
2023/07/22 08:33:19;;;;;;;30.10;6.97;;;41.10;43.80;;;;;;5116085;28;20140;-75
2023/07/22 08:35:47;;;;;;;33.47;6.40;;;41.20;42.90;;;;;;5116012;28;20182;-74
2023/07/22 08:38:14;;;;;;;25.45;6.35;;;40.20;41.60;;;;;;5115971;28;20035;-74
2023/07/22 08:40:41;;;;;;;29.02;6.40;;;39.90;42.10;;;;;;5116019;28;20058;-74
2023/07/22 08:43:09;;;;;;;24.10;6.03;;;40.10;41.80;;;;;;5114429;28;20055;-74
2023/07/22 08:45:37;;;;;;;20.88;6.15;;;40.60;41.90;;;;;;5116089;28;20065;-75
2023/07/22 08:48:09;;;;;;;27.08;6.55;;;40.10;40.70;;;;;;5115651;28;20020;-73
2023/07/22 08:50:54;;;;;;;29.10;6.55;;;39.80;42.00;;;;;;5114297;28;20023;-74
2023/07/22 08:53:21;;;;;;;23.73;5.90;;;40.10;42.60;;;;;;5115386;28;20020;-74
2023/07/22 08:55:50;;;;;;;22.70;5.55;;;40.00;39.90;;;;;;5115595;28;20028;-74
2023/07/22 08:58:16;;;;;;;20.23;5.55;;;39.60;37.60;;;;;;5115921;28;20359;-73
2023/07/22 09:00:43;;;;;;;24.73;6.03;;;39.70;40.10;;;;;;5115366;28;20031;-74
2023/07/22 09:03:11;;;;;;;27.27;6.60;;;40.00;41.00;;;;;;5115592;28;20035;-74
2023/07/22 09:05:38;;;;;;;52.30;6.97;;;40.60;41.50;;;;;;5115549;28;20490;-73
2023/07/22 09:08:07;;;;;;;24.00;5.43;;;40.20;41.90;;;;;;5115966;28;20130;-74
2023/07/22 09:10:34;;;;;;;35.72;6.07;;;40.10;42.10;;;;;;5115050;28;20020;-74
2023/07/22 09:13:01;;;;;;;24.38;6.03;;;40.10;42.20;;;;;;5115492;28;20098;-74
2023/07/22 09:15:28;;;;;;;38.75;6.05;;;40.30;43.00;;;;;;5115610;28;20167;-74
2023/07/22 09:17:54;;;;;;;25.05;6.07;;;40.00;43.90;;;;;;5113682;28;20034;-74
2023/07/22 09:20:21;;;;;;;25.13;6.28;;;40.00;44.10;;;;;;5115267;28;20151;-74
2023/07/22 09:22:50;;;;;;;24.98;6.43;;;40.00;43.30;;;;;;5115039;28;20046;-74
2023/07/22 09:25:22;;;;;;;30.60;6.13;;;40.40;42.80;;;;;;5114963;28;20027;-74
2023/07/22 09:27:52;;;;;;;21.98;5.18;;;40.60;43.40;;;;;;5113564;28;20114;-74
2023/07/22 09:30:31;;;;;;;26.95;5.78;;;40.60;43.00;;;;;;5114860;28;20024;-74
2023/07/22 09:33:02;;;;;;;29.45;5.63;;;40.80;44.40;;;;;;5113513;28;20054;-73
2023/07/22 09:35:30;;;;;;;24.13;5.38;;;40.90;43.80;;;;;;5114824;28;20042;-74
2023/07/22 09:37:57;;;;;;;24.88;5.60;;;40.60;43.70;;;;;;5114821;28;20028;-74
2023/07/22 09:40:25;;;;;;;30.70;5.25;;;40.70;43.30;;;;;;5114675;28;20038;-75
2023/07/22 09:42:54;;;;;;;21.35;4.93;;;40.40;43.20;;;;;;5114751;28;20027;-74
2023/07/22 09:45:25;;;;;;;29.33;5.85;;;40.00;42.50;;;;;;5115130;28;20027;-75
2023/07/22 09:47:52;;;;;;;23.42;5.75;;;40.00;42.90;;;;;;5115115;28;20474;-74
2023/07/22 09:50:22;;;;;;;19.92;5.53;;;40.10;43.10;;;;;;5114555;28;20160;-74
2023/07/22 09:52:59;;;;;;;27.05;5.18;;;39.80;43.30;;;;;;5114594;28;20015;-74
2023/07/22 09:55:29;;;;;;;21.98;4.90;;;39.60;44.10;;;;;;5114373;28;20024;-75
2023/07/22 09:58:00;;;;;;;25.35;5.20;;;39.50;44.30;;;;;;5113175;28;20016;-74
2023/07/22 10:00:32;;;;;;;33.85;5.80;;;39.10;43.90;;;;;;5114475;28;20521;-74
2023/07/22 10:02:59;;;;;;;37.30;5.40;;;39.10;43.90;;;;;;5114775;28;20108;-74
2023/07/22 10:05:26;;;;;;;25.95;5.22;;;39.40;44.20;;;;;;5114535;28;20024;-74
2023/07/22 10:07:57;;;;;;;29.85;5.40;;;39.50;42.80;;;;;;5114715;28;20509;-74
2023/07/22 10:10:32;;;;;;;27.80;5.88;;;39.10;43.50;;;;;;5114072;28;20031;-74
2023/07/22 10:12:59;;;;;;;22.70;5.28;;;39.20;44.30;;;;;;5114202;28;20049;-74
2023/07/22 10:15:28;;;;;;;19.80;5.18;;;39.10;44.50;;;;;;5114092;28;20054;-75
2023/07/22 10:17:56;;;;;;;31.13;5.63;;;38.80;45.30;;;;;;5112998;28;20087;-74
2023/07/22 10:20:23;;;;;;;26.85;5.55;;;38.70;45.90;;;;;;5114545;28;20023;-73
2023/07/22 10:22:50;;;;;;;27.65;5.63;;;38.90;45.20;;;;;;5112335;28;20067;-74
2023/07/22 10:25:18;;;;;;;24.13;5.15;;;39.10;45.40;;;;;;5112499;28;20079;-74
2023/07/22 10:27:49;;;;;;;27.38;4.93;;;39.00;46.00;;;;;;5114355;28;20065;-71
2023/07/22 10:30:17;;;;;;;22.67;5.13;;;38.60;47.20;;;;;;5112564;28;20114;-74
2023/07/22 10:32:48;;;;;;;21.67;5.18;;;38.40;48.10;;;;;;5112236;28;20044;-74
2023/07/22 10:35:35;;;;;;;26.42;5.85;;;38.60;48.50;;;;;;5113664;28;20047;-74
2023/07/22 10:38:12;;;;;;;29.27;4.93;;;38.40;49.90;;;;;;5113961;28;20054;-74
2023/07/22 10:40:50;;;;;;;32.08;5.68;;;38.20;51.10;;;;;;5112084;28;20028;-74
2023/07/22 10:43:18;;;;;;;22.70;5.15;;;38.00;52.00;;;;;;5113849;28;20039;-75
2023/07/22 10:45:51;;;;;;;23.45;5.15;;;37.70;53.60;;;;;;5113935;28;20383;-75
2023/07/22 10:48:17;;;;;;;28.60;5.45;;;38.10;53.40;;;;;;5111385;28;20065;-74
2023/07/22 10:50:53;;;;;;;24.25;5.40;;;38.30;53.90;;;;;;5113586;28;20024;-74
2023/07/22 10:53:50;;;;;;;24.13;4.63;;;38.10;55.10;;;;;;5113527;28;20028;-73
2023/07/22 10:56:20;;;;;;;23.02;5.50;;;37.40;55.60;;;;;;5050877;28;20052;-74
2023/07/22 10:58:46;;;;;;;26.75;5.50;;;37.40;57.50;;;;;;5050675;28;20033;-75
2023/07/22 11:01:29;;;;;;;27.48;5.93;;;37.40;56.90;;;;;;5050973;28;20124;-74
2023/07/22 11:04:15;;;;;;;31.13;6.15;;;37.20;57.00;;;;;;5050946;28;20036;-74
2023/07/22 11:06:43;;;;;;;31.80;5.50;;;37.30;56.10;;;;;;5050296;28;20073;-73
2023/07/22 11:09:32;;;;;;;23.70;5.25;;;37.40;57.30;;;;;;5050348;28;20029;-74
2023/07/22 11:12:18;;;;;;;21.75;5.55;;;37.40;55.70;;;;;;5050781;28;20136;-74
2023/07/22 11:14:49;;;;;;;30.02;4.90;;;37.50;57.00;;;;;;5050632;28;20039;-74
2023/07/22 11:17:17;;;;;;;25.58;4.72;;;37.60;57.70;;;;;;5050705;28;20039;-74
2023/07/22 11:19:44;;;;;;;29.65;5.78;;;37.90;57.50;;;;;;5033538;28;20456;-74
2023/07/22 11:22:11;;;;;;;36.97;5.50;;;38.20;56.40;;;;;;5050167;28;20401;-74
2023/07/22 11:24:37;;;;;;;23.95;5.25;;;38.20;55.70;;;;;;5050077;28;20025;-72
2023/07/22 11:27:05;;;;;;;17.23;4.82;;;38.30;58.80;;;;;;5050686;28;20033;-72
2023/07/22 11:29:32;;;;;;;24.00;6.35;;;38.10;58.90;;;;;;5050229;28;20074;-73
2023/07/22 11:31:58;;;;;;;31.45;6.38;;;38.40;58.90;;;;;;5055308;28;20385;-73
2023/07/22 11:34:25;;;;;;;22.90;5.80;;;38.50;58.80;;;;;;5113424;28;20026;-75
2023/07/22 11:36:53;;;;;;;19.52;6.00;;;38.40;60.20;;;;;;5112768;28;20026;-73
2023/07/22 11:39:21;;;;;;;27.60;6.47;;;38.50;61.60;;;;;;5111345;28;20126;-74
2023/07/22 11:41:48;;;;;;;24.83;5.15;;;38.60;62.60;;;;;;5111382;28;20035;-74
2023/07/22 11:44:16;;;;;;;30.60;9.30;;;38.40;61.50;;;;;;5112685;28;20079;-74
2023/07/22 11:47:03;;;;;;;23.52;4.95;;;38.60;63.50;;;;;;5113177;28;20032;-74
2023/07/22 11:49:40;;;;;;;23.85;6.05;;;38.40;60.40;;;;;;5113189;28;20023;-74
2023/07/22 11:52:11;;;;;;;33.00;7.47;;;38.40;61.70;;;;;;5121202;28;20073;-75
2023/07/22 11:54:41;;;;;;;26.10;8.18;;;38.40;63.90;;;;;;5133357;27;20332;-73
2023/07/22 11:57:23;;;;;;;24.38;6.32;;;38.40;65.20;;;;;;5133521;27;20057;-73
2023/07/22 11:59:51;;;;;;;27.33;5.40;;;38.50;65.60;;;;;;5135632;27;20032;-74
2023/07/22 12:02:19;;;;;;;41.70;6.30;;;38.20;64.20;;;;;;5137646;27;20475;-73
2023/07/22 12:05:00;;;;;;;23.45;4.88;;;38.50;65.60;;;;;;5137547;27;20042;-75
2023/07/22 12:07:31;;;;;;;28.25;5.40;;;38.80;65.70;;;;;;5137110;27;20035;-75
2023/07/22 12:10:00;;;;;;;30.30;4.95;;;38.60;65.80;;;;;;5136976;27;20019;-74
2023/07/22 12:12:36;;;;;;;15.07;4.82;;;38.50;66.50;;;;;;5137611;27;20023;-74
2023/07/22 12:15:17;;;;;;;26.38;5.75;;;38.50;66.40;;;;;;5137588;27;20022;-74
2023/07/22 12:18:02;;;;;;;19.80;5.13;;;38.50;69.00;;;;;;5136896;27;20100;-75
2023/07/22 12:20:30;;;;;;;17.52;5.15;;;38.50;70.10;;;;;;5137589;27;20019;-73
2023/07/22 12:22:57;;;;;;;26.60;5.50;;;38.50;70.60;;;;;;5135437;27;20527;-75
2023/07/22 12:25:23;;;;;;;19.30;5.20;;;38.50;70.40;;;;;;5136619;27;20386;-74
2023/07/22 12:27:50;;;;;;;25.98;5.80;;;38.20;70.60;;;;;;5137286;27;20027;-73
2023/07/22 12:30:16;;;;;;;26.90;5.07;;;38.20;72.00;;;;;;5137240;27;20024;-74
2023/07/22 12:32:42;;;;;;;30.17;6.18;;;38.10;72.40;;;;;;5136530;27;20134;-75
2023/07/22 12:35:09;;;;;;;21.92;5.07;;;38.10;72.20;;;;;;5137023;27;20451;-74
2023/07/22 12:37:36;;;;;;;20.98;4.95;;;37.90;71.80;;;;;;5136949;27;20055;-74
2023/07/22 12:40:07;;;;;;;22.50;5.30;;;37.70;73.00;;;;;;5136481;27;20042;-74
2023/07/22 12:42:35;;;;;;;25.70;5.80;;;37.70;73.50;;;;;;5136343;27;20073;-74
2023/07/22 12:45:01;;;;;;;19.52;5.10;;;37.90;74.50;;;;;;5136903;27;20034;-73
2023/07/22 12:47:27;;;;;;;23.42;5.43;;;37.80;74.60;;;;;;5136876;27;20106;-74